Terminal Aerodrome Forecast
Issued by NWS

Home | Current Version | Previous Version | Text Only | Print | Product List | Glossary On
Versions: 1 2 3 4 5 6 7 8 9 10 11 12 13 14
000
FTUS44 KTSA 171100
TAFBVO
TAF
KBVO 171123Z 1712/1812 36003KT P6SM OVC250
     FM171400 06006KT P6SM BKN150
     FM172100 04006KT P6SM BKN100
     FM180300 00000KT P6SM SCT250=

USA.gov is the U.S. government's official web portal to all federal, state and local government web resources and services.